Tapoco, North Carolina
Current Conditions -  °F | °C
As of 1:35 PM on Thursday 23 Oct 2014 (Local Time) from KRHP Reporting Station
Clear Clear  
Wind Chill: 58°   Ceiling: Unl
Heat Index: 58°   Visibility: 10mi
Dew Point: 44°   Wind: 7mph
Humidity: 58%   Direction: 250°WSW
Pressure: 30.1"   Gusts: NA
Location:  35.3435°N, 83.8508°W
Report Text: KRHP 231735Z AUTO 25006KT 10SM CLR 15/06 A3010 RMK AO2 T01470064
Loading
Personal Weather Stations






























Interactive Weather Map
Tropical Storm Tracking
New forecast layout! Learn more

10-Day Weather Forecast

Advertisements
Track Severe Weather on mobile